Time;durP1;ratioP1;P1;durP2;ratioP2;P2;SDS_P1;SDS_P2;PMS_P1;PMS_P2;Temp;Humidity;BMP_temperature;BMP_pressure;BME280_temperature;BME280_humidity;BME280_pressure;Samples;Min_cycle;Max_cycle;Signal;HPM_P1;HPM_P2
2022/09/19 00:01:34;;;;;;;;;;;;;;;10.45;100.00;-25359.84;5135102;27;19934;-79
2022/09/19 00:04:02;;;;;;;;;;;;;;;10.44;100.00;-25359.41;5116303;27;19961;-78
2022/09/19 00:06:29;;;;;;;;;;;;;;;10.37;100.00;-25357.66;5116312;27;19919;-78
2022/09/19 00:08:55;;;;;;;;;;;;;;;10.37;100.00;-25357.66;5116478;27;19922;-79
2022/09/19 00:11:20;;;;;;;;;;;;;;;10.30;100.00;-25355.44;5116344;27;19919;-78
2022/09/19 00:13:48;;;;;;;;;;;;;;;10.23;100.00;-25353.69;5116357;28;19915;-78
2022/09/19 00:16:18;;;;;;;;;;;;;;;10.20;100.00;-25352.66;5116067;27;19926;-78
2022/09/19 00:18:44;;;;;;;;;;;;;;;10.17;100.00;-25351.94;5116418;27;20371;-78
2022/09/19 00:21:09;;;;;;;;;;;;;;;10.14;100.00;-25351.03;5116316;28;19915;-76
2022/09/19 00:26:20;;;;;;;;;;;;;;;10.05;100.00;-25348.56;5134240;27;19940;-80
2022/09/19 00:28:46;;;;;;;;;;;;;;;9.98;100.00;-25346.50;5115846;27;19920;-76
2022/09/19 00:31:19;;;;;;;;;;;;;;;9.98;100.00;-25346.50;5115608;27;19926;-76
2022/09/19 00:33:47;;;;;;;;;;;;;;;9.89;100.00;-25344.00;5115540;28;20004;-78
2022/09/19 00:36:13;;;;;;;;;;;;;;;9.86;100.00;-25343.13;5115183;28;19916;-77
2022/09/19 00:38:39;;;;;;;;;;;;;;;9.78;100.00;-25340.75;5115644;28;19920;-76
2022/09/19 00:41:06;;;;;;;;;;;;;;;9.77;100.00;-25340.47;5115472;28;20280;-77
2022/09/19 00:44:02;;;;;;;;;;;;;;;9.70;100.00;-25338.56;5114445;28;19926;-79
2022/09/19 00:46:28;;;;;;;;;;;;;;;9.62;100.00;-25336.22;5122233;27;19919;-76
2022/09/19 00:49:11;;;;;;;;;;;;;;;9.54;100.00;-25333.88;5119317;27;19922;-78
2022/09/19 00:51:40;;;;;;;;;;;;;;;9.52;100.00;-25333.28;5119707;27;19915;-80
2022/09/19 00:54:11;;;;;;;;;;;;;;;9.49;100.00;-25332.38;5119698;27;20292;-77
2022/09/19 00:56:40;;;;;;;;;;;;;;;9.46;100.00;-25331.50;5119990;27;19959;-77
2022/09/19 00:59:05;;;;;;;;;;;;;;;9.43;100.00;-25330.63;5119899;27;20287;-78
2022/09/19 01:01:31;;;;;;;;;;;;;;;9.46;100.00;-25331.50;5119748;27;19919;-77
2022/09/19 01:03:56;;;;;;;;;;;;;;;9.44;100.00;-25331.06;5119931;27;19920;-77
2022/09/19 01:06:24;;;;;;;;;;;;;;;9.49;100.00;-25332.38;5119560;27;19915;-78
2022/09/19 01:09:08;;;;;;;;;;;;;;;9.59;100.00;-25335.34;5119886;27;19943;-77
2022/09/19 01:11:40;;;;;;;;;;;;;;;9.70;100.00;-25338.56;5119527;27;19919;-76
2022/09/19 01:14:14;;;;;;;;;;;;;;;9.80;100.00;-25341.34;5119883;27;20371;-76
2022/09/19 01:16:50;;;;;;;;;;;;;;;9.93;100.00;-25345.03;5119674;27;19969;-76
2022/09/19 01:19:24;;;;;;;;;;;;;;;10.02;100.00;-25347.66;5118739;27;20347;-79
2022/09/19 01:21:52;;;;;;;;;;;;;;;10.06;100.00;-25348.69;5118991;27;19919;-76
2022/09/19 01:24:26;;;;;;;;;;;;;;;10.05;100.00;-25348.56;5119322;27;20421;-77
2022/09/19 01:26:58;;;;;;;;;;;;;;;10.10;100.00;-25349.88;5119338;27;19915;-76
2022/09/19 01:29:38;;;;;;;;;;;;;;;10.11;100.00;-25350.03;5118713;27;19915;-77
2022/09/19 01:32:06;;;;;;;;;;;;;;;10.15;100.00;-25351.19;5101355;27;20471;-77
2022/09/19 01:34:34;;;;;;;;;;;;;;;10.15;100.00;-25351.34;5119633;27;19915;-78
2022/09/19 01:37:19;;;;;;;;;;;;;;;10.14;100.00;-25351.03;5118969;27;20364;-77
2022/09/19 01:39:49;;;;;;;;;;;;;;;10.06;100.00;-25348.84;5115877;28;20283;-80
2022/09/19 01:42:19;;;;;;;;;;;;;;;10.00;100.00;-25347.09;5112680;27;19923;-77
2022/09/19 01:44:44;;;;;;;;;;;;;;;10.00;100.00;-25346.94;5118665;27;19915;-78
2022/09/19 01:47:17;;;;;;;;;;;;;;;9.96;100.00;-25345.91;5117564;27;20002;-76
2022/09/19 01:49:58;;;;;;;;;;;;;;;9.93;100.00;-25344.88;5119201;27;20176;-78
2022/09/19 01:52:48;;;;;;;;;;;;;;;9.91;100.00;-25344.44;5137169;27;19998;-81
2022/09/19 01:55:13;;;;;;;;;;;;;;;9.87;100.00;-25343.25;5098645;28;20007;-78
2022/09/19 01:57:39;;;;;;;;;;;;;;;9.87;100.00;-25343.41;5098620;28;20407;-81
2022/09/19 02:00:07;;;;;;;;;;;;;;;9.84;100.00;-25342.53;5115366;27;20275;-77
2022/09/19 02:02:49;;;;;;;;;;;;;;;9.83;100.00;-25342.22;5119448;27;19911;-78
2022/09/19 02:05:15;;;;;;;;;;;;;;;9.79;100.00;-25340.91;5119166;27;20006;-78
2022/09/19 02:07:52;;;;;;;;;;;;;;;9.73;100.00;-25339.31;5119175;27;20404;-80
2022/09/19 02:10:23;;;;;;;;;;;;;;;9.72;100.00;-25338.84;5118785;27;19920;-82
2022/09/19 02:12:52;;;;;;;;;;;;;;;9.71;100.00;-25338.72;5118275;27;19915;-79
2022/09/19 02:15:21;;;;;;;;;;;;;;;9.65;100.00;-25336.94;5116823;27;19919;-77
2022/09/19 02:17:50;;;;;;;;;;;;;;;9.62;100.00;-25336.06;5117446;27;19915;-76
2022/09/19 02:20:30;;;;;;;;;;;;;;;9.53;100.00;-25333.72;5116151;27;19924;-77
2022/09/19 02:23:00;;;;;;;;;;;;;;;9.51;100.00;-25333.13;5101288;27;19919;-77
2022/09/19 02:25:30;;;;;;;;;;;;;;;9.51;100.00;-25333.13;5118308;27;19915;-76
2022/09/19 02:27:59;;;;;;;;;;;;;;;9.49;100.00;-25332.53;5117934;27;19911;-77
2022/09/19 02:30:24;;;;;;;;;;;;;;;9.48;100.00;-25332.09;5116527;27;20555;-76
2022/09/19 02:32:52;;;;;;;;;;;;;;;9.53;100.00;-25333.56;5117038;27;19919;-77
2022/09/19 02:35:34;;;;;;;;;;;;;;;9.59;100.00;-25335.19;5117817;27;19919;-77
2022/09/19 02:38:05;;;;;;;;;;;;;;;9.63;100.00;-25336.50;5117571;27;19916;-76
2022/09/19 02:40:35;;;;;;;;;;;;;;;9.69;100.00;-25338.28;5118176;27;19937;-78
2022/09/19 02:43:03;;;;;;;;;;;;;;;9.75;100.00;-25339.88;5117061;27;19915;-77
2022/09/19 02:45:34;;;;;;;;;;;;;;;9.82;100.00;-25341.78;5117514;27;19919;-77
2022/09/19 02:48:11;;;;;;;;;;;;;;;9.88;100.00;-25343.72;5117491;27;19922;-78
2022/09/19 02:50:39;;;;;;;;;;;;;;;9.91;100.00;-25344.28;5117698;27;19919;-79
2022/09/19 02:53:10;;;;;;;;;;;;;;;9.93;100.00;-25345.03;5116687;27;19916;-77
2022/09/19 02:55:41;;;;;;;;;;;;;;;9.98;100.00;-25346.34;5117795;27;20371;-76
2022/09/19 02:58:08;;;;;;;;;;;;;;;9.97;100.00;-25344.28;5117087;27;19915;-77
2022/09/19 03:00:34;;;;;;;;;;;;;;;9.95;100.00;-24365.28;5117367;27;19959;-76
2022/09/19 03:04:11;;;;;;;;;;;;;;;9.87;100.00;-23058.56;5117142;27;19965;-77
2022/09/19 03:05:57;;;;;;;;;;;;;;;9.73;100.00;-22728.94;5135409;27;19954;-76
2022/09/19 03:08:24;;;;;;;;;;;;;;;9.67;100.00;-22727.44;5116297;27;19920;-75
2022/09/19 03:10:51;;;;;;;;;;;;;;;9.65;100.00;-22400.81;5116179;28;19958;-76
2022/09/19 03:13:24;;;;;;;;;;;;;;;9.62;100.00;-22400.06;5116584;27;19915;-77
2022/09/19 03:15:58;;;;;;;;;;;;;;;9.62;100.00;-22400.06;5117261;27;19955;-77
2022/09/19 03:18:26;;;;;;;;;;;;;;;9.55;100.00;-21746.22;5116812;27;20434;-74
2022/09/19 03:20:54;;;;;;;;;;;;;;;9.52;100.00;-21745.63;5116918;27;19916;-76
2022/09/19 03:23:23;;;;;;;;;;;;;;;9.50;100.00;-21745.03;5135317;27;19976;-80
2022/09/19 03:25:49;;;;;;;;;;;;;;;9.52;100.00;-21745.50;5115870;27;19979;-81
2022/09/19 03:28:19;;;;;;;;;;;;;;;9.52;100.00;-21419.34;5115737;27;20458;-82
2022/09/19 04:56:03;;;;;;;;;;;;;;;9.08;100.00;-25320.63;5116273;28;20421;-80
2022/09/19 05:02:31;;;;;;;;;;;;;;;9.04;100.00;-25319.59;5113616;28;19942;-82
2022/09/19 05:14:42;;;;;;;;;;;;;;;9.15;100.00;-25322.84;5011389;28;19968;-80
2022/09/19 05:17:51;;;;;;;;;;;;;;;9.17;100.00;-25323.28;5011220;28;19918;-80
2022/09/19 05:49:28;;;;;;;;;;;;;;;9.72;100.00;-25338.84;5012420;28;19935;-75
2022/09/19 05:51:56;;;;;;;;;;;;;;;9.74;100.00;-25339.59;5013059;28;19921;-76
2022/09/19 05:54:22;;;;;;;;;;;;;;;9.78;100.00;-25340.75;5059731;28;20377;-77
2022/09/19 05:56:51;;;;;;;;;;;;;;;9.81;100.00;-25341.50;5070186;28;19960;-77
2022/09/19 05:59:16;;;;;;;;;;;;;;;9.88;100.00;-25343.56;5069686;28;19956;-77
2022/09/19 06:01:41;;;;;;;;;;;;;;;9.91;100.00;-25344.28;5036750;28;20035;-77
2022/09/19 06:04:07;;;;;;;;;;;;;;;9.95;100.00;-25345.47;5036653;28;20285;-77
2022/09/19 06:06:35;;;;;;;;;;;;;;;10.05;100.00;-25348.56;5036973;28;19928;-77
2022/09/19 06:09:01;;;;;;;;;;;;;;;10.14;100.00;-25351.03;5054668;28;19968;-76
2022/09/19 06:11:27;;;;;;;;;;;;;;;10.20;100.00;-25352.66;5033616;28;20011;-76
2022/09/19 06:16:37;;;;;;;;;;;;;;;10.35;100.00;-25357.06;5115718;28;20386;-76
2022/09/19 06:19:04;;;;;;;;;;;;;;;10.43;100.00;-25359.13;5097231;28;20364;-76
2022/09/19 06:21:31;;;;;;;;;;;;;;;10.50;100.00;-25361.19;5090691;28;19947;-77
2022/09/19 06:23:57;;;;;;;;;;;;;;;10.62;100.00;-25364.56;5097116;28;19919;-77
2022/09/19 06:26:22;;;;;;;;;;;;;;;10.69;100.00;-25366.75;5075821;28;20339;-76
2022/09/19 06:28:50;;;;;;;;;;;;;;;10.80;100.00;-25369.84;5098287;27;19916;-76
2022/09/19 06:31:15;;;;;;;;;;;;;;;10.95;100.00;-25374.22;5117512;27;19995;-77
2022/09/19 06:33:42;;;;;;;;;;;;;;;11.04;100.00;-25376.56;5117609;27;19915;-77
2022/09/19 06:36:08;;;;;;;;;;;;;;;11.20;100.00;-25381.13;5107678;28;19920;-77
2022/09/19 06:38:35;;;;;;;;;;;;;;;11.31;100.00;-25384.50;5093410;28;20050;-76
2022/09/19 06:41:00;;;;;;;;;;;;;;;11.36;100.00;-25385.66;5101898;28;19920;-77
2022/09/19 06:43:27;;;;;;;;;;;;;;;11.44;100.00;-25388.16;5096141;28;19923;-77
2022/09/19 06:45:52;;;;;;;;;;;;;;;11.49;100.00;-25387.69;5095628;28;19916;-78
2022/09/19 06:48:18;;;;;;;;;;;;;;;11.56;100.00;-23427.63;5095132;28;19916;-74
2022/09/19 06:50:44;;;;;;;;;;;;;;;11.59;100.00;-21792.72;5094771;28;20304;-75
2022/09/19 06:53:09;;;;;;;;;;;;;;;11.58;100.00;-20156.13;5095179;28;20018;-75
2022/09/19 06:55:34;;;;;;;;;;;;;;;11.50;100.00;-18845.13;5095126;28;19932;-74
2022/09/19 06:58:01;;;;;;;;;;;;;;;11.52;100.00;-16880.34;5078410;28;19924;-73
2022/09/19 07:00:28;;;;;;;;;;;;;;;11.65;100.00;-15571.47;5094702;28;19923;-75
2022/09/19 07:03:15;;;;;;;;;;;;;;;11.81;100.00;-14917.81;5094768;28;19927;-75
2022/09/19 07:05:42;;;;;;;;;;;;;;;11.93;100.00;-13607.03;5094947;28;20291;-74
2022/09/19 07:08:08;;;;;;;;;;;;;;;12.07;100.00;-11967.22;5095058;28;19915;-74
2022/09/19 07:10:36;;;;;;;;;;;;;;;12.18;100.00;-9340.28;5094177;28;19923;-74
2022/09/19 07:13:04;;;;;;;;;;;;;;;12.31;100.00;-6710.53;5095165;28;19923;-75
2022/09/19 07:15:31;;;;;;;;;;;;;;;12.43;100.00;-3419.53;5095031;28;19965;-74
2022/09/19 07:17:56;;;;;;;;;;;;;;;12.54;100.00;-454.19;5095124;28;19919;-75
2022/09/19 07:20:22;;;;;;;;;;;;;;;12.64;100.00;2184.56;5094883;28;19919;-75
2022/09/19 07:22:56;;;;;;;;;;;;;;;12.69;100.00;4164.91;5094642;28;19916;-75
2022/09/19 07:25:21;;;;;;;;;;;;;;;12.81;100.00;6478.28;5094669;28;19916;-75
2022/09/19 07:27:52;;;;;;;;;;;;;;;12.86;100.00;6479.41;5094570;28;20539;-76
2022/09/19 07:30:18;;;;;;;;;;;;;;;13.02;100.00;9126.75;5095140;28;19972;-75
2022/09/19 07:32:43;;;;;;;;;;;;;;;13.25;100.00;13103.75;5094173;28;19920;-76
2022/09/19 07:35:08;;;;;;;;;;;;;;;13.47;100.00;14435.78;5094897;28;20400;-74
2022/09/19 07:37:33;;;;;;;;;;;;;;;13.79;100.00;14778.34;5094427;28;19926;-77
2022/09/19 07:39:59;;;;;;;;;;;;;;;14.09;100.00;18106.78;5094418;28;20035;-75
2022/09/19 07:42:26;;;;;;;;;;;;;;;14.26;100.00;21435.53;5094734;28;19919;-78
2022/09/19 07:44:52;;;;;;;;;;;;;;;14.26;100.00;23429.91;5077951;28;19920;-75
2022/09/19 07:47:29;;;;;;;;;;;;;;;14.19;100.00;24756.59;5095041;28;19923;-76
2022/09/19 07:49:55;;;;;;;;;;;;;;;14.05;100.00;20429.16;5111172;27;19919;-75
2022/09/19 07:52:22;;;;;;;;;;;;;;;14.14;100.00;22759.06;5114952;27;19923;-78
2022/09/19 07:54:47;;;;;;;;;;;;;;;13.94;100.00;22417.19;5114920;27;20041;-78
2022/09/19 07:57:13;;;;;;;;;;;;;;;13.92;100.00;22416.47;5114661;27;19919;-78
2022/09/19 07:59:39;;;;;;;;;;;;;;;13.74;100.00;19420.00;5113747;27;19919;-74
2022/09/19 08:02:07;;;;;;;;;;;;;;;13.84;100.00;20752.06;5114373;27;19916;-74
2022/09/19 08:04:32;;;;;;;;;;;;;;;13.89;100.00;23743.75;5114025;27;20014;-73
2022/09/19 08:06:57;;;;;;;;;;;;;;;13.95;100.00;22417.69;5113196;27;20580;-75
2022/09/19 08:09:22;;;;;;;;;;;;;;;14.08;100.00;24750.53;5115534;27;19963;-76
2022/09/19 08:11:48;;;;;;;;;;;;;;;14.12;100.00;26415.56;5114510;27;20014;-77
2022/09/19 08:14:13;;;;;;;;;;;;;;;14.00;100.00;28738.34;5096926;27;20314;-78
2022/09/19 08:16:39;;;;;;;;;;;;;;;14.02;100.00;25412.63;5114258;27;19911;-78
2022/09/19 08:19:05;;;;;;;;;;;;;;;14.12;100.00;23423.06;5114711;27;19961;-78
2022/09/19 08:21:30;;;;;;;;;;;;;;;14.74;100.00;23785.91;5114608;27;19976;-78
2022/09/19 08:23:56;;;;;;;;;;;;;;;14.90;100.00;37464.56;5114844;28;19919;-79
2022/09/19 08:26:21;;;;;;;;;;;;;;;14.90;100.00;44819.59;5114936;27;19919;-77
2022/09/19 08:28:48;;;;;;;;;;;;;;;14.74;100.00;52843.16;5114844;27;19999;-77
2022/09/19 08:31:13;;;;;;;;;;;;;;;15.00;100.00;59917.34;5112875;28;19924;-77
2022/09/19 08:33:38;;;;;;;;;;;;;;;14.88;100.00;60577.06;5113344;28;20242;-77
2022/09/19 08:36:04;;;;;;;;;;;;;;;14.77;100.00;78743.97;5114564;27;20600;-77
2022/09/19 08:38:31;;;;;;;;;;;;;;;14.97;100.00;91618.56;5098000;28;20459;-77
2022/09/19 08:40:59;;;;;;;;;;;;;;;15.51;100.00;93399.19;5098312;28;19920;-76
2022/09/19 08:43:45;;;;;;;;;;;;;;;15.79;100.00;132301.22;5114734;28;20006;-78
2022/09/19 08:46:15;;;;;;;;;;;;;;;15.73;100.00;146691.66;5105856;28;19919;-77
2022/09/19 08:48:43;;;;;;;;;;;;;;;15.71;100.00;146686.56;5094469;28;19924;-77
2022/09/19 08:51:17;;;;;;;;;;;;;;;15.65;100.00;146669.97;5129241;28;20279;-76
2022/09/19 08:53:47;;;;;;;;;;;;;;;16.06;100.00;146773.41;5096508;27;19923;-77
2022/09/19 08:56:18;;;;;;;;;;;;;;;15.93;100.00;146741.50;5112794;28;19920;-78
2022/09/19 08:58:49;;;;;;;;;;;;;;;15.93;100.00;146741.50;5114783;28;20338;-77
2022/09/19 09:01:15;;;;;;;;;;;;;;;15.84;100.00;146717.25;5113170;28;20294;-77
2022/09/19 09:04:07;;;;;;;;;;;;;;;15.78;100.00;146703.19;5113997;28;19968;-77
2022/09/19 09:06:38;;;;;;;;;;;;;;;15.88;100.00;146727.44;5102829;28;19919;-76
2022/09/19 09:09:14;;;;;;;;;;;;;;;15.76;100.00;146698.06;5116262;27;20335;-77
2022/09/19 09:11:42;;;;;;;;;;;;;;;15.78;100.00;146703.19;5117653;27;20317;-76
2022/09/19 09:14:11;;;;;;;;;;;;;;;15.81;100.00;146709.59;5117239;27;19922;-76
2022/09/19 09:17:00;;;;;;;;;;;;;;;15.67;100.00;146675.06;5117185;27;19915;-78
2022/09/19 09:19:39;;;;;;;;;;;;;;;15.84;100.00;146717.25;5117818;27;19916;-78
2022/09/19 09:22:25;;;;;;;;;;;;;;;15.79;100.00;146707.03;5117571;27;19919;-77
2022/09/19 09:24:58;;;;;;;;;;;;;;;15.94;100.00;146744.06;5117273;27;19923;-77
2022/09/19 09:27:26;;;;;;;;;;;;;;;15.91;100.00;146736.41;5117494;27;19941;-78
2022/09/19 09:29:58;;;;;;;;;;;;;;;15.98;100.00;146754.25;5118400;27;20347;-76
2022/09/19 09:32:30;;;;;;;;;;;;;;;15.97;100.00;146750.44;5131836;27;19927;-78
2022/09/19 09:35:18;;;;;;;;;;;;;;;16.08;100.00;146778.56;5116125;27;19920;-78
2022/09/19 09:37:57;;;;;;;;;;;;;;;16.26;100.00;146821.97;5102112;27;19923;-78
2022/09/19 09:43:10;;;;;;;;;;;;;;;16.59;100.00;146903.72;5136506;27;19922;-78
2022/09/19 09:45:35;;;;;;;;;;;;;;;16.56;100.00;146897.31;5117978;27;20010;-79
2022/09/19 09:48:14;;;;;;;;;;;;;;;16.27;100.00;146824.53;5118181;27;20014;-76
2022/09/19 09:50:46;;;;;;;;;;;;;;;16.39;100.00;146853.91;5118551;27;20278;-77
2022/09/19 09:53:31;;;;;;;;;;;;;;;16.75;100.00;146943.31;5116387;27;19926;-79
2022/09/19 09:56:14;;;;;;;;;;;;;;;16.97;100.00;146998.34;5118123;27;19919;-78
2022/09/19 09:58:57;;;;;;;;;;;;;;;16.95;100.00;146993.22;5117635;27;20164;-78
2022/09/19 10:04:23;;;;;;;;;;;;;;;16.33;100.00;146839.88;5136335;27;19923;-77
2022/09/19 10:07:12;;;;;;;;;;;;;;;16.57;100.00;146899.88;5117822;27;19923;-77
2022/09/19 10:09:41;;;;;;;;;;;;;;;16.39;100.00;146853.91;5117530;27;20428;-77
2022/09/19 10:12:14;;;;;;;;;;;;;;;16.29;100.00;146829.63;5117383;27;20030;-76
2022/09/19 10:14:39;;;;;;;;;;;;;;;16.27;100.00;146824.53;5117203;27;19934;-76
2022/09/19 10:17:06;;;;;;;;;;;;;;;16.38;100.00;146852.63;5114911;27;19920;-76
2022/09/19 10:19:38;;;;;;;;;;;;;;;16.71;100.00;146934.38;5117776;27;19916;-76
2022/09/19 10:22:05;;;;;;;;;;;;;;;16.96;100.00;146995.78;5115002;27;19923;-75
2022/09/19 10:24:40;;;;;;;;;;;;;;;17.18;100.00;147050.72;5116945;27;19939;-76
2022/09/19 10:27:10;;;;;;;;;;;;;;;17.44;100.00;147115.94;5117647;27;19938;-77
2022/09/19 10:29:35;;;;;;;;;;;;;;;17.29;100.00;147078.88;5136537;27;20007;-80
2022/09/19 10:32:13;;;;;;;;;;;;;;;17.05;100.00;147020.06;5118144;27;20447;-78
2022/09/19 10:34:41;;;;;;;;;;;;;;;17.09;100.00;147029.03;5118645;27;19915;-78
2022/09/19 10:37:11;;;;;;;;;;;;;;;16.98;100.00;147000.88;5118704;27;19911;-77
2022/09/19 10:39:48;;;;;;;;;;;;;;;16.91;100.00;146984.28;5121286;27;19915;-78
2022/09/19 10:42:42;;;;;;;;;;;;;;;16.70;100.00;146931.81;5121821;27;19919;-79
2022/09/19 10:45:16;;;;;;;;;;;;;;;16.54;100.00;146890.97;5131924;27;19941;-77
2022/09/19 10:47:42;;;;;;;;;;;;;;;16.32;100.00;146838.56;5111783;28;19916;-77
2022/09/19 10:50:13;;;;;;;;;;;;;;;16.07;100.00;146774.72;5115374;27;20287;-77
2022/09/19 10:52:40;;;;;;;;;;;;;;;16.00;100.00;146758.09;5100593;28;19920;-78
2022/09/19 10:55:09;;;;;;;;;;;;;;;15.98;100.00;146754.25;5135286;27;19926;-79
2022/09/19 10:57:45;;;;;;;;;;;;;;;16.17;100.00;146798.97;5127932;27;19911;-78
2022/09/19 11:00:23;;;;;;;;;;;;;;;16.02;100.00;146763.22;5099436;28;19946;-78
2022/09/19 11:05:36;;;;;;;;;;;;;;;16.54;100.00;146892.22;5132746;27;19915;-76
2022/09/19 11:08:03;;;;;;;;;;;;;;;16.59;100.00;146904.97;5118475;27;19919;-77
2022/09/19 11:10:49;;;;;;;;;;;;;;;16.59;100.00;146903.72;5123264;27;19916;-78
2022/09/19 11:13:22;;;;;;;;;;;;;;;16.66;100.00;146921.63;5133715;27;19926;-78
2022/09/19 11:16:03;;;;;;;;;;;;;;;16.27;100.00;146825.81;5128011;27;19912;-77
2022/09/19 11:18:39;;;;;;;;;;;;;;;16.57;100.00;146898.63;5151283;27;19930;-78
2022/09/19 11:21:09;;;;;;;;;;;;;;;16.79;100.00;146954.81;5118560;27;19976;-77
2022/09/19 11:23:45;;;;;;;;;;;;;;;17.09;100.00;147029.03;5118242;27;19959;-78
2022/09/19 11:26:29;;;;;;;;;;;;;;;16.92;100.00;146986.84;5119765;27;19969;-78
2022/09/19 11:28:54;;;;;;;;;;;;;;;16.71;100.00;146934.38;5128749;27;19920;-79
2022/09/19 11:31:42;;;;;;;;;;;;;;;16.87;100.00;146974.03;5129314;27;19922;-80
2022/09/19 11:34:26;;;;;;;;;;;;;;;17.18;100.00;147050.72;5110497;27;19979;-79
2022/09/19 11:37:09;;;;;;;;;;;;;;;17.16;100.00;147046.88;5125849;27;19926;-79
2022/09/19 11:39:47;;;;;;;;;;;;;;;16.99;100.00;147003.44;5131067;27;19926;-80
2022/09/19 11:42:28;;;;;;;;;;;;;;;17.26;100.00;147069.91;5124814;27;19921;-79
2022/09/19 11:45:11;;;;;;;;;;;;;;;17.63;100.00;147163.22;5129667;27;19919;-79
2022/09/19 11:47:45;;;;;;;;;;;;;;;17.59;100.00;147154.28;5130212;27;19915;-79
2022/09/19 11:50:10;;;;;;;;;;;;;;;17.27;100.00;147072.47;5127222;27;19962;-80
2022/09/19 11:52:47;;;;;;;;;;;;;;;16.97;100.00;146998.34;5132305;27;19921;-77
2022/09/19 11:55:30;;;;;;;;;;;;;;;16.99;100.00;147003.44;5131071;27;19975;-78
2022/09/19 11:57:59;;;;;;;;;;;;;;;17.11;100.00;147032.84;5108661;28;19930;-78
2022/09/19 12:00:28;;;;;;;;;;;;;;;16.86;100.00;146971.50;5115446;27;20406;-80
2022/09/19 12:03:14;;;;;;;;;;;;;;;17.09;100.00;147029.03;5120385;27;19923;-79
2022/09/19 12:05:40;;;;;;;;;;;;;;;16.88;100.00;146976.59;5105547;27;19935;-77
2022/09/19 12:08:25;;;;;;;;;;;;;;;16.58;100.00;146901.16;5120253;27;19926;-78
2022/09/19 12:10:58;;;;;;;;;;;;;;;16.66;100.00;146921.63;5119747;27;19930;-79
2022/09/19 12:13:34;;;;;;;;;;;;;;;16.76;100.00;146945.88;5119860;27;19973;-79
2022/09/19 12:16:07;;;;;;;;;;;;;;;17.02;100.00;147011.13;5121344;27;19923;-79
2022/09/19 12:18:44;;;;;;;;;;;;;;;17.26;100.00;147069.91;5137158;27;19955;-79
2022/09/19 12:21:12;;;;;;;;;;;;;;;17.44;100.00;147115.94;5117121;27;20007;-79
2022/09/19 12:26:28;;;;;;;;;;;;;;;17.26;100.00;147069.91;5135152;27;19926;-79
2022/09/19 12:29:19;;;;;;;;;;;;;;;16.79;100.00;146953.56;5116917;28;20014;-79
2022/09/19 12:31:47;;;;;;;;;;;;;;;16.28;100.00;146827.06;5116177;28;20386;-78
2022/09/19 12:34:29;;;;;;;;;;;;;;;16.08;100.00;146778.56;5116482;27;19922;-78
2022/09/19 12:37:05;;;;;;;;;;;;;;;16.06;100.00;146773.41;5116534;28;19916;-81
2022/09/19 12:39:40;;;;;;;;;;;;;;;16.07;100.00;146776.00;5126634;28;19926;-81
2022/09/19 12:42:27;;;;;;;;;;;;;;;16.26;100.00;146821.97;5115261;28;19976;-81
2022/09/19 12:45:11;;;;;;;;;;;;;;;16.31;100.00;146834.72;5116629;28;19922;-80
2022/09/19 12:47:54;;;;;;;;;;;;;;;16.36;100.00;146846.22;5116450;28;19971;-79
2022/09/19 12:50:33;;;;;;;;;;;;;;;15.98;100.00;146753.00;5097670;28;19920;-79
2022/09/19 12:55:56;;;;;;;;;;;;;;;15.82;100.00;146713.41;5116664;28;19923;-80
2022/09/19 12:58:32;;;;;;;;;;;;;;;16.11;100.00;146786.22;5096094;28;19916;-80
2022/09/19 13:01:08;;;;;;;;;;;;;;;16.21;100.00;146810.47;5113904;28;19916;-79
2022/09/19 13:03:40;;;;;;;;;;;;;;;16.39;100.00;146855.19;5095288;28;19968;-78
2022/09/19 13:06:10;;;;;;;;;;;;;;;16.27;100.00;146824.53;5094863;28;19968;-80
2022/09/19 13:08:43;;;;;;;;;;;;;;;16.17;100.00;146798.97;5093414;28;20140;-79
2022/09/19 13:11:24;;;;;;;;;;;;;;;16.00;100.00;146758.09;5094145;28;19934;-80
2022/09/19 13:14:08;;;;;;;;;;;;;;;15.81;100.00;146710.84;5095494;28;20017;-80
2022/09/19 13:16:35;;;;;;;;;;;;;;;15.61;100.00;146661.00;5095467;28;19923;-78
2022/09/19 13:24:37;;;;;;;;;;;;;;;15.69;100.00;146681.47;5113167;28;19919;-79
2022/09/19 13:27:04;;;;;;;;;;;;;;;15.55;100.00;146645.69;5094185;28;19915;-78
2022/09/19 13:29:29;;;;;;;;;;;;;;;15.35;100.00;146597.19;5095578;28;20010;-81
2022/09/19 13:31:56;;;;;;;;;;;;;;;15.35;100.00;146595.88;5094377;28;20011;-78
2022/09/19 13:34:40;;;;;;;;;;;;;;;15.40;100.00;146609.94;5094631;28;19940;-77
2022/09/19 13:37:24;;;;;;;;;;;;;;;15.66;100.00;146672.50;5080016;28;19916;-77
2022/09/19 13:39:55;;;;;;;;;;;;;;;15.71;100.00;146686.56;5075821;28;19920;-79
2022/09/19 13:42:32;;;;;;;;;;;;;;;15.98;100.00;146753.00;5094371;28;20350;-78
2022/09/19 13:45:05;;;;;;;;;;;;;;;16.30;100.00;146833.47;5095318;28;19926;-79
2022/09/19 13:47:30;;;;;;;;;;;;;;;16.72;100.00;146936.97;5094770;28;19912;-78
2022/09/19 13:50:07;;;;;;;;;;;;;;;16.77;100.00;146949.72;5095015;28;19927;-79
2022/09/19 13:52:44;;;;;;;;;;;;;;;16.20;100.00;146806.63;5094151;28;19923;-79
2022/09/19 13:55:12;;;;;;;;;;;;;;;15.76;100.00;146699.31;5095610;28;19927;-78
2022/09/19 13:57:40;;;;;;;;;;;;;;;15.38;100.00;146604.84;5098373;28;19912;-79
2022/09/19 14:00:27;;;;;;;;;;;;;;;15.45;100.00;146621.44;5084479;28;20010;-78
2022/09/19 14:03:02;;;;;;;;;;;;;;;15.27;100.00;146576.75;5085486;28;19919;-79
2022/09/19 14:05:31;;;;;;;;;;;;;;;15.04;100.00;133841.91;5085940;28;19920;-78
2022/09/19 14:07:58;;;;;;;;;;;;;;;14.97;100.00;108585.91;5099174;28;19915;-78
2022/09/19 14:10:29;;;;;;;;;;;;;;;14.87;100.00;88218.84;5099098;28;19923;-79
2022/09/19 14:13:00;;;;;;;;;;;;;;;14.90;100.00;63267.38;5098261;28;19962;-79
2022/09/19 14:15:29;;;;;;;;;;;;;;;14.96;100.00;48172.81;5096649;28;20039;-78
2022/09/19 14:18:13;;;;;;;;;;;;;;;15.20;100.00;44844.88;5096866;28;20622;-79
2022/09/19 14:20:44;;;;;;;;;;;;;;;15.21;100.00;48865.41;5097412;28;19927;-79
2022/09/19 14:23:14;;;;;;;;;;;;;;;15.52;100.00;48557.34;5093125;28;19916;-79
2022/09/19 14:25:40;;;;;;;;;;;;;;;15.76;100.00;50927.94;5095014;28;20449;-79
2022/09/19 14:28:18;;;;;;;;;;;;;;;15.90;100.00;73833.25;5077972;28;19912;-79
2022/09/19 14:30:53;;;;;;;;;;;;;;;16.00;100.00;110140.19;5089153;28;19923;-79
2022/09/19 14:33:28;;;;;;;;;;;;;;;15.89;100.00;146730.00;5097935;28;19951;-79
2022/09/19 14:36:25;;;;;;;;;;;;;;;15.70;100.00;146682.72;5116340;28;19916;-79
2022/09/19 14:39:15;;;;;;;;;;;;;;;15.56;100.00;146649.50;5075547;28;19968;-79
2022/09/19 14:41:59;;;;;;;;;;;;;;;15.55;100.00;146645.69;5082862;28;19920;-79
2022/09/19 14:44:36;;;;;;;;;;;;;;;15.50;100.00;146634.19;5095219;28;19923;-79
2022/09/19 14:47:05;;;;;;;;;;;;;;;15.58;100.00;146654.66;5096986;28;19958;-79
2022/09/19 14:49:47;;;;;;;;;;;;;;;15.36;100.00;146598.47;5096124;28;19920;-80
2022/09/19 14:52:18;;;;;;;;;;;;;;;15.32;100.00;146589.53;5097502;28;19924;-80
2022/09/19 14:55:09;;;;;;;;;;;;;;;15.25;100.00;146572.91;5097875;28;19920;-79
2022/09/19 14:57:44;;;;;;;;;;;;;;;15.11;100.00;146535.94;5090992;28;19955;-79
2022/09/19 15:00:19;;;;;;;;;;;;;;;15.01;100.00;146511.69;5097774;28;19997;-80
2022/09/19 15:02:50;;;;;;;;;;;;;;;14.99;100.00;146507.88;5097555;28;19972;-80
2022/09/19 15:05:20;;;;;;;;;;;;;;;14.98;100.00;146505.28;5097381;28;19993;-80
2022/09/19 15:07:45;;;;;;;;;;;;;;;15.04;100.00;146519.34;5097304;28;19916;-80
2022/09/19 15:10:20;;;;;;;;;;;;;;;15.10;100.00;146533.34;5097383;28;19922;-79
2022/09/19 15:12:49;;;;;;;;;;;;;;;15.24;100.00;146570.41;5096844;28;19993;-79
2022/09/19 15:15:15;;;;;;;;;;;;;;;15.19;100.00;146557.59;5097344;28;19969;-79
2022/09/19 15:17:40;;;;;;;;;;;;;;;15.21;100.00;146561.44;5097523;28;19919;-79
2022/09/19 15:20:05;;;;;;;;;;;;;;;15.22;100.00;146564.00;5097261;28;19923;-80
2022/09/19 15:22:34;;;;;;;;;;;;;;;15.33;100.00;146590.81;5096985;28;20328;-79
2022/09/19 15:25:02;;;;;;;;;;;;;;;15.27;100.00;146576.75;5096366;28;19912;-79
2022/09/19 15:27:30;;;;;;;;;;;;;;;15.32;100.00;146589.53;5095171;28;20340;-79